Erwin, TN

6:53 AM EDT on October 02, 2014 (GMT -0400)
Erwin | Change Station
CLOSE
Current Station
Personal Weather Station
Location: Erwin, TN
Elevation: 1923 ft
Nearby Weather Stations

Elev 1923 ft 36.15 °N, 82.40 °W | Updated 9 seconds ago

Partly Cloudy
Partly Cloudy
50.5 °F
Feels Like 50.5 °F
N
0.0
Wind Variable Wind from WSW
Gusts 0.0 mph

Today
High -- | Low -- °F
--% Chance of Precip.
Yesterday
High -- | Low -- °F
Precip. -- in
7:25 AM 7:11 PM
First Quarter, 57% visible
Pressure 30.03 in
Visibility 10.0 miles
Clouds Clear
Dew Point 50 °F
Humidity 97%
Rainfall 0.00 in
Snow Depth Not available.
UV 0 out of 12
Pollen 4.10 out of 12
Air Quality Not available.
Flu Activity Not available.
METAR K0A9 011135Z AUTO 05004KT 10SM CLR 12/11 A3003 RMK

More Conditions Fewer Conditions

Pressure 30.03 in
Visibility 10.0 miles
Clouds Clear
Dew Point 50 °F
Humidity 97%
Rainfall 0.00 in
Snow Depth Not available.
UV 0 out of 12
Pollen 4.10 out of 12
Air Quality Not available.
Flu Activity Not available.
METAR K0A9 011135Z AUTO 05004KT 10SM CLR 12/11 A3003 RMK

More Conditions Fewer Conditions

10-Day Weather Forecast

Almanac

Astronomy

Oct. 02, 2014 Rise Set
Actual Time 7:25 AM EDT 7:11 PM EDT
Civil Twilight 6:59 AM EDT 7:37 PM EDT
Nautical Twilight 6:30 AM EDT 8:07 PM EDT
Astronomical Twilight 6:00 AM EDT 8:36 PM EDT
Moon 3:07 PM EDT 12:51 AM EDT
Length of Visible Light 12h 37m
Length of Day
11h 46m
Tomorrow will be 2m 16s shorter.
First Quarter, 57% of the Moon is Illuminated
Today
First Quarter
Oct 8
Full
Oct 15
Last Quarter
Oct 23
New
Oct 30
First Quarter

Today's Extremes

State Highs State Lows

Community

WunderPhotos

Upload Photos

1,758,210 photos uploaded!

WunderBlogs® & News

Nearby

Snow Depth

Station Depth Elevation
No new snow has been reported.

Earthquake Activity

City Distance Mag. Time & Date
No recent earthquake activity has been reported nearby.
Minimum magnitude displayed is 2.5.

Coastal Water Temperatures

Place Temperature
No Stations Reporting

Nearby Weather Stations